地図

経路データ

SID SEASON NUMBER BASIN SUBBASIN NAME ISO_TIME NATURE LAT LON WMO_WIND WMO_PRES WMO_AGENCY TRACK_TYPE DIST2LAND LANDFALL IFLAG USA_AGENCY USA_ATCF_ID USA_LAT USA_LON USA_RECORD USA_STATUS USA_WIND USA_PRES USA_SSHS USA_R34_NE USA_R34_SE USA_R34_SW USA_R34_NW USA_R50_NE USA_R50_SE USA_R50_SW USA_R50_NW USA_R64_NE USA_R64_SE USA_R64_SW USA_R64_NW USA_POCI USA_ROCI USA_RMW USA_EYE TOKYO_LAT TOKYO_LON TOKYO_GRADE TOKYO_WIND TOKYO_PRES TOKYO_R50_DIR TOKYO_R50_LONG TOKYO_R50_SHORT TOKYO_R30_DIR TOKYO_R30_LONG TOKYO_R30_SHORT TOKYO_LAND CMA_LAT CMA_LON CMA_CAT CMA_WIND CMA_PRES HKO_LAT HKO_LON HKO_CAT HKO_WIND HKO_PRES NEWDELHI_LAT NEWDELHI_LON NEWDELHI_GRADE NEWDELHI_WIND NEWDELHI_PRES NEWDELHI_CI NEWDELHI_DP NEWDELHI_POCI REUNION_LAT REUNION_LON REUNION_TYPE REUNION_WIND REUNION_PRES REUNION_TNUM REUNION_CI REUNION_RMW REUNION_R34_NE REUNION_R34_SE REUNION_R34_SW REUNION_R34_NW REUNION_R50_NE REUNION_R50_SE REUNION_R50_SW REUNION_R50_NW REUNION_R64_NE REUNION_R64_SE REUNION_R64_SW REUNION_R64_NW BOM_LAT BOM_LON BOM_TYPE BOM_WIND BOM_PRES BOM_TNUM BOM_CI BOM_RMW BOM_R34_NE BOM_R34_SE BOM_R34_SW BOM_R34_NW BOM_R50_NE BOM_R50_SE BOM_R50_SW BOM_R50_NW BOM_R64_NE BOM_R64_SE BOM_R64_SW BOM_R64_NW BOM_ROCI BOM_POCI BOM_EYE BOM_POS_METHOD BOM_PRES_METHOD NADI_LAT NADI_LON NADI_CAT NADI_WIND NADI_PRES WELLINGTON_LAT WELLINGTON_LON WELLINGTON_WIND WELLINGTON_PRES DS824_LAT DS824_LON DS824_STAGE DS824_WIND DS824_PRES TD9636_LAT TD9636_LON TD9636_STAGE TD9636_WIND TD9636_PRES TD9635_LAT TD9635_LON TD9635_WIND TD9635_PRES TD9635_ROCI NEUMANN_LAT NEUMANN_LON NEUMANN_CLASS NEUMANN_WIND NEUMANN_PRES MLC_LAT MLC_LON MLC_CLASS MLC_WIND MLC_PRES USA_GUST BOM_GUST BOM_GUST_PER REUNION_GUST REUNION_GUST_PER USA_SEAHGT USA_SEARAD_NE USA_SEARAD_SE USA_SEARAD_SW USA_SEARAD_NW STORM_SPEED STORM_DIR
1861290N25292 1861 31 NA NA NOT_NAMED 1861-10-16 12:00:00 TS 25.0000 -68.5000 main 620 598 _____________O -1 25.0000 -68.5000 TS 35 12 296
1861290N25292 1861 31 NA NA NOT_NAMED 1861-10-16 15:00:00 TS 25.2630 -69.0994 main 607 586 _____________P -1 25.2630 -69.0994 TS 35 12 295
1861290N25292 1861 31 NA NA NOT_NAMED 1861-10-16 18:00:00 TS 25.5000 -69.7000 main 586 573 _____________O -1 25.5000 -69.7000 TS 35 12 292
1861290N25292 1861 31 NA NA NOT_NAMED 1861-10-16 21:00:00 TS 25.6998 -70.3004 main 573 565 _____________P -1 25.6998 -70.3004 TS 35 12 290
1861290N25292 1861 31 NA NA NOT_NAMED 1861-10-17 00:00:00 TS 25.9000 -70.9000 main 567 563 _____________O -1 25.9000 -70.9000 TS 35 12 293
1861290N25292 1861 31 NA NA NOT_NAMED 1861-10-17 03:00:00 TS 26.1498 -71.5075 main 568 568 _____________P -1 26.1498 -71.5075 TS 37 12 295
1861290N25292 1861 31 NA NA NOT_NAMED 1861-10-17 06:00:00 TS 26.4000 -72.1000 main 588 558 _____________O -1 26.4000 -72.1000 TS 40 11 292
1861290N25292 1861 31 NA NA NOT_NAMED 1861-10-17 09:00:00 TS 26.5849 -72.6805 main 553 515 _____________P -1 26.5849 -72.6805 TS 40 11 292
1861290N25292 1861 31 NA NA NOT_NAMED 1861-10-17 12:00:00 TS 26.8000 -73.2000 main 515 492 _____________O -1 26.8000 -73.2000 TS 40 10 303
1861290N25292 1861 31 NA NA NOT_NAMED 1861-10-17 15:00:00 TS 27.1272 -73.6227 main 492 480 _____________P -1 27.1272 -73.6227 TS 40 10 315
1861290N25292 1861 31 NA NA NOT_NAMED 1861-10-17 18:00:00 TS 27.5000 -74.0000 main 480 468 _____________O -1 27.5000 -74.0000 TS 40 10 316
1861290N25292 1861 31 NA NA NOT_NAMED 1861-10-17 21:00:00 TS 27.8499 -74.4003 main 468 467 _____________P -1 27.8499 -74.4003 TS 42 10 315
1861290N25292 1861 31 NA NA NOT_NAMED 1861-10-18 00:00:00 TS 28.2000 -74.8000 main 469 465 _____________O -1 28.2000 -74.8000 TS 45 10 315
1861290N25292 1861 31 NA NA NOT_NAMED 1861-10-18 03:00:00 TS 28.5574 -75.2002 main 479 473 _____________P -1 28.5574 -75.2002 TS 45 10 315
1861290N25292 1861 31 NA NA NOT_NAMED 1861-10-18 06:00:00 TS 28.9000 -75.6000 main 479 443 _____________O -1 28.9000 -75.6000 TS 45 10 312
1861290N25292 1861 31 NA NA NOT_NAMED 1861-10-18 09:00:00 TS 29.2152 -76.0449 main 444 413 _____________P -1 29.2152 -76.0449 TS 45 9 311
1861290N25292 1861 31 NA NA NOT_NAMED 1861-10-18 12:00:00 TS 29.5000 -76.4000 main 413 407 _____________O -1 29.5000 -76.4000 TS 45 7 321
1861290N25292 1861 31 NA NA NOT_NAMED 1861-10-18 15:00:00 TS 29.7573 -76.5454 main 414 405 _____________P -1 29.7573 -76.5454 TS 45 5 341
1861290N25292 1861 31 NA NA NOT_NAMED 1861-10-18 18:00:00 TS 30.0000 -76.6000 main 413 403 _____________O -1 30.0000 -76.6000 TS 45 5 343
1861290N25292 1861 31 NA NA NOT_NAMED 1861-10-18 21:00:00 TS 30.2500 -76.7149 main 394 371 _____________P -1 30.2500 -76.7149 TS 45 5 341
1861290N25292 1861 31 NA NA NOT_NAMED 1861-10-19 00:00:00 TS 30.5000 -76.8000 main 371 354 _____________O -1 30.5000 -76.8000 TS 45 5 350
1861290N25292 1861 31 NA NA NOT_NAMED 1861-10-19 03:00:00 TS 30.7500 -76.8151 main 354 331 _____________P -1 30.7500 -76.8151 TS 45 5 2
1861290N25292 1861 31 NA NA NOT_NAMED 1861-10-19 06:00:00 TS 31.0000 -76.8000 main 331 316 _____________O -1 31.0000 -76.8000 TS 45 5 3
1861290N25292 1861 31 NA NA NOT_NAMED 1861-10-19 09:00:00 TS 31.2575 -76.8000 main 309 290 _____________P -1 31.2575 -76.8000 TS 45 5 2
1861290N25292 1861 31 NA NA NOT_NAMED 1861-10-19 12:00:00 TS 31.5000 -76.8000 main 290 269 _____________O -1 31.5000 -76.8000 TS 45 5 0
1861290N25292 1861 31 NA NA NOT_NAMED 1861-10-19 15:00:00 TS 31.7075 -76.8075 main 269 249 _____________P -1 31.7075 -76.8075 TS 45 4 0
1861290N25292 1861 31 NA NA NOT_NAMED 1861-10-19 18:00:00 TS 31.9000 -76.8000 main 249 229 _____________O -1 31.9000 -76.8000 TS 45 4 4
1861290N25292 1861 31 NA NA NOT_NAMED 1861-10-19 21:00:00 TS 32.1000 -76.7575 main 229 215 _____________P -1 32.1000 -76.7575 TS 45 4 12
1861290N25292 1861 31 NA NA NOT_NAMED 1861-10-20 00:00:00 TS 32.3000 -76.7000 main 215 197 _____________O -1 32.3000 -76.7000 TS 45 4 12
1861290N25292 1861 31 NA NA NOT_NAMED 1861-10-20 03:00:00 TS 32.5075 -76.6500 main 203 186 _____________P -1 32.5075 -76.6500 TS 45 4 12
1861290N25292 1861 31 NA NA NOT_NAMED 1861-10-20 06:00:00 TS 32.7000 -76.6000 main 186 178 _____________O -1 32.7000 -76.6000 TS 45 3 15
1861290N25292 1861 31 NA NA NOT_NAMED 1861-10-20 09:00:00 TS 32.8425 -76.5499 main 185 171 _____________P -1 32.8425 -76.5499 TS 45 3 16
1861290N25292 1861 31 NA NA NOT_NAMED 1861-10-20 12:00:00 TS 33.0000 -76.5000 main 171 159 _____________O -1 33.0000 -76.5000 TS 45 4 11
1861290N25292 1861 31 NA NA NOT_NAMED 1861-10-20 15:00:00 TS 33.2425 -76.4500 main 159 134 _____________P -1 33.2425 -76.4500 TS 45 5 9
1861290N25292 1861 31 NA NA NOT_NAMED 1861-10-20 18:00:00 TS 33.5000 -76.4000 main 134 111 _____________O -1 33.5000 -76.4000 TS 45 5 9
1861290N25292 1861 31 NA NA NOT_NAMED 1861-10-20 21:00:00 TS 33.7000 -76.3648 main 111 91 _____________P -1 33.7000 -76.3648 TS 45 4 11
1861290N25292 1861 31 NA NA NOT_NAMED 1861-10-21 00:00:00 TS 33.9000 -76.3000 main 91 72 _____________O -1 33.9000 -76.3000 TS 45 5 21
1861290N25292 1861 31 NA NA NOT_NAMED 1861-10-21 03:00:00 TS 34.1501 -76.1577 main 62 56 _____________P -1 34.1501 -76.1577 TS 45 6 26
1861290N25292 1861 31 NA NA NOT_NAMED 1861-10-21 06:00:00 TS 34.4000 -76.0000 main 56 43 _____________O -1 34.4000 -76.0000 TS 45 5 19
1861290N25292 1861 31 NA NA NOT_NAMED 1861-10-21 09:00:00 TS 34.5918 -75.9814 main 43 35 _____________P -1 34.5918 -75.9814 TS 45 4 22
1861290N25292 1861 31 NA NA NOT_NAMED 1861-10-21 12:00:00 TS 34.8000 -75.8000 main 46 46 _____________O -1 34.8000 -75.8000 TS 45 8 51
1861290N25292 1861 31 NA NA NOT_NAMED 1861-10-21 15:00:00 TS 35.1155 -75.1989 main 71 70 _____________P -1 35.1155 -75.1989 TS 42 13 62
1861290N25292 1861 31 NA NA NOT_NAMED 1861-10-21 18:00:00 ET 35.4000 -74.4000 main 108 108 _____________O -1 35.4000 -74.4000 EX 40 13 71
1861290N25292 1861 31 NA NA NOT_NAMED 1861-10-21 21:00:00 ET 35.5448 -73.6495 main 174 172 _____________P -1 35.5448 -73.6495 EX 40 12 81
1861290N25292 1861 31 NA NA NOT_NAMED 1861-10-22 00:00:00 ET 35.6000 -72.9000 main 235 235 _____________O -1 35.6000 -72.9000 EX 40 12 87
1861290N25292 1861 31 NA NA NOT_NAMED 1861-10-22 03:00:00 ET 35.6143 -72.1996 main 298 298 _____________P -1 35.6143 -72.1996 EX 40 11 90
1861290N25292 1861 31 NA NA NOT_NAMED 1861-10-22 06:00:00 ET 35.6000 -71.5000 main 361 361 _____________O -1 35.6000 -71.5000 EX 40 12 91
1861290N25292 1861 31 NA NA NOT_NAMED 1861-10-22 09:00:00 ET 35.5961 -70.7627 main 423 423 _____________P -1 35.5961 -70.7627 EX 37 12 90
1861290N25292 1861 31 NA NA NOT_NAMED 1861-10-22 12:00:00 ET 35.6000 -70.0000 main 495 _____________O -1 35.6000 -70.0000 EX 35 12 90

IBTrACS Databaseについて

本データベースは、米国NOAAが公開する1842年以降の世界の熱帯低気圧のベストトラックデータアーカイブInternational Best Track Archive for Climate Stewardship (IBTrACS)を、ウェブで閲覧しやすい形式に変換したものです。

最終更新日:2021-11-26